Terminal Aerodrome Forecast
Issued by NWS

Home | Current Version | Previous Version | Text Only | Print | Product List | Glossary On
Versions: 1 2 3 4 5 6 7 8 9 10 11 12 13 14 15 16 17 18
000
FTUS42 KJAX 272339
TAFVQQ
TAF
KVQQ 272339Z 2800/2824 12008KT P6SM VCSH BKN045
     FM280200 00000KT P6SM SCT040 BKN250
     FM280600 VRB02KT 3SM BR FEW040
     FM280800 VRB02KT 1SM BR SCT002 BKN009
      TEMPO 2808/2812 1/2SM FG OVC002
     FM281400 15008KT P6SM SCT050=

USA.gov is the U.S. government's official web portal to all federal, state and local government web resources and services.